sensor_id;sensor_type;location;lat;lon;timestamp;P1;durP1;ratioP1;P2;durP2;ratioP2
55931;SDS011;41837;55.700;37.984;2022-12-08T00:01:11;13.82;;;5.60;;
55931;SDS011;41837;55.700;37.984;2022-12-08T00:03:39;11.63;;;5.47;;
55931;SDS011;41837;55.700;37.984;2022-12-08T00:06:20;16.73;;;6.47;;
55931;SDS011;41837;55.700;37.984;2022-12-08T00:09:11;16.20;;;5.55;;
55931;SDS011;41837;55.700;37.984;2022-12-08T00:11:58;14.07;;;6.18;;
55931;SDS011;41837;55.700;37.984;2022-12-08T00:14:31;16.48;;;6.55;;
55931;SDS011;41837;55.700;37.984;2022-12-08T00:17:00;17.08;;;6.63;;
55931;SDS011;41837;55.700;37.984;2022-12-08T00:19:28;12.65;;;6.00;;
55931;SDS011;41837;55.700;37.984;2022-12-08T00:21:55;14.57;;;5.65;;
55931;SDS011;41837;55.700;37.984;2022-12-08T00:24:22;12.95;;;5.20;;
55931;SDS011;41837;55.700;37.984;2022-12-08T00:26:51;11.32;;;5.03;;
55931;SDS011;41837;55.700;37.984;2022-12-08T00:29:18;12.23;;;5.28;;
55931;SDS011;41837;55.700;37.984;2022-12-08T00:31:44;12.13;;;5.50;;
55931;SDS011;41837;55.700;37.984;2022-12-08T00:34:12;11.60;;;5.45;;
55931;SDS011;41837;55.700;37.984;2022-12-08T00:36:40;13.23;;;5.18;;
55931;SDS011;41837;55.700;37.984;2022-12-08T00:39:07;12.63;;;4.88;;
55931;SDS011;41837;55.700;37.984;2022-12-08T00:41:33;11.65;;;5.40;;
55931;SDS011;41837;55.700;37.984;2022-12-08T00:44:18;10.13;;;4.25;;
55931;SDS011;41837;55.700;37.984;2022-12-08T00:46:45;15.63;;;5.55;;
55931;SDS011;41837;55.700;37.984;2022-12-08T00:49:12;10.15;;;4.70;;
55931;SDS011;41837;55.700;37.984;2022-12-08T00:51:41;11.02;;;4.45;;
55931;SDS011;41837;55.700;37.984;2022-12-08T00:54:08;11.80;;;5.05;;
55931;SDS011;41837;55.700;37.984;2022-12-08T00:56:36;11.65;;;5.30;;
55931;SDS011;41837;55.700;37.984;2022-12-08T00:59:03;15.63;;;5.25;;
55931;SDS011;41837;55.700;37.984;2022-12-08T01:01:31;11.18;;;4.30;;
55931;SDS011;41837;55.700;37.984;2022-12-08T01:04:04;11.55;;;5.22;;
55931;SDS011;41837;55.700;37.984;2022-12-08T01:06:34;14.93;;;5.32;;
55931;SDS011;41837;55.700;37.984;2022-12-08T01:09:01;10.48;;;4.57;;
55931;SDS011;41837;55.700;37.984;2022-12-08T01:11:29;9.95;;;5.05;;
55931;SDS011;41837;55.700;37.984;2022-12-08T01:13:55;12.20;;;5.15;;
55931;SDS011;41837;55.700;37.984;2022-12-08T01:16:23;9.15;;;4.55;;
55931;SDS011;41837;55.700;37.984;2022-12-08T01:18:51;10.48;;;4.43;;
55931;SDS011;41837;55.700;37.984;2022-12-08T01:21:18;11.73;;;4.82;;
55931;SDS011;41837;55.700;37.984;2022-12-08T01:23:44;10.00;;;3.95;;
55931;SDS011;41837;55.700;37.984;2022-12-08T01:26:12;13.05;;;4.65;;
55931;SDS011;41837;55.700;37.984;2022-12-08T01:28:39;9.50;;;3.95;;
55931;SDS011;41837;55.700;37.984;2022-12-08T01:31:10;11.80;;;4.80;;
55931;SDS011;41837;55.700;37.984;2022-12-08T01:33:39;10.18;;;4.72;;
55931;SDS011;41837;55.700;37.984;2022-12-08T01:36:06;9.90;;;4.75;;
55931;SDS011;41837;55.700;37.984;2022-12-08T01:38:34;10.57;;;4.50;;
55931;SDS011;41837;55.700;37.984;2022-12-08T01:41:01;8.75;;;3.53;;
55931;SDS011;41837;55.700;37.984;2022-12-08T01:43:54;6.90;;;3.58;;
55931;SDS011;41837;55.700;37.984;2022-12-08T01:46:34;12.52;;;4.95;;
55931;SDS011;41837;55.700;37.984;2022-12-08T01:49:26;18.58;;;4.13;;
55931;SDS011;41837;55.700;37.984;2022-12-08T01:55:03;16.13;;;4.80;;
55931;SDS011;41837;55.700;37.984;2022-12-08T01:57:59;14.05;;;4.40;;
55931;SDS011;41837;55.700;37.984;2022-12-08T02:00:48;13.38;;;5.03;;
55931;SDS011;41837;55.700;37.984;2022-12-08T02:03:20;10.77;;;4.35;;
55931;SDS011;41837;55.700;37.984;2022-12-08T02:05:51;9.10;;;3.58;;
55931;SDS011;41837;55.700;37.984;2022-12-08T02:08:18;13.18;;;4.78;;
55931;SDS011;41837;55.700;37.984;2022-12-08T02:10:45;11.40;;;4.72;;
55931;SDS011;41837;55.700;37.984;2022-12-08T02:13:12;11.32;;;4.57;;
55931;SDS011;41837;55.700;37.984;2022-12-08T02:18:39;12.75;;;5.25;;
55931;SDS011;41837;55.700;37.984;2022-12-08T02:24:45;10.43;;;4.40;;
55931;SDS011;41837;55.700;37.984;2022-12-08T02:44:29;12.73;;;4.50;;
55931;SDS011;41837;55.700;37.984;2022-12-08T02:47:17;13.65;;;4.82;;
55931;SDS011;41837;55.700;37.984;2022-12-08T02:49:46;14.82;;;5.13;;
55931;SDS011;41837;55.700;37.984;2022-12-08T02:54:40;18.05;;;5.95;;
55931;SDS011;41837;55.700;37.984;2022-12-08T03:00:05;12.35;;;5.80;;
55931;SDS011;41837;55.700;37.984;2022-12-08T03:05:12;11.50;;;5.07;;
55931;SDS011;41837;55.700;37.984;2022-12-08T03:10:48;9.52;;;4.00;;
55931;SDS011;41837;55.700;37.984;2022-12-08T03:13:19;13.23;;;5.30;;
55931;SDS011;41837;55.700;37.984;2022-12-08T03:15:50;9.10;;;4.10;;
55931;SDS011;41837;55.700;37.984;2022-12-08T03:18:19;10.23;;;4.60;;
55931;SDS011;41837;55.700;37.984;2022-12-08T03:20:52;11.27;;;5.03;;
55931;SDS011;41837;55.700;37.984;2022-12-08T03:23:19;14.25;;;5.75;;
55931;SDS011;41837;55.700;37.984;2022-12-08T03:28:44;13.25;;;5.63;;
55931;SDS011;41837;55.700;37.984;2022-12-08T03:31:11;14.20;;;6.72;;
55931;SDS011;41837;55.700;37.984;2022-12-08T03:33:40;15.38;;;7.00;;
55931;SDS011;41837;55.700;37.984;2022-12-08T03:36:10;9.82;;;4.53;;
55931;SDS011;41837;55.700;37.984;2022-12-08T03:38:39;11.18;;;4.75;;
55931;SDS011;41837;55.700;37.984;2022-12-08T03:41:11;15.15;;;5.88;;
55931;SDS011;41837;55.700;37.984;2022-12-08T03:43:53;12.35;;;5.28;;
55931;SDS011;41837;55.700;37.984;2022-12-08T03:46:22;13.88;;;5.28;;
55931;SDS011;41837;55.700;37.984;2022-12-08T03:48:49;10.77;;;5.20;;
55931;SDS011;41837;55.700;37.984;2022-12-08T03:51:16;10.15;;;4.72;;
55931;SDS011;41837;55.700;37.984;2022-12-08T03:53:43;14.45;;;6.25;;
55931;SDS011;41837;55.700;37.984;2022-12-08T03:56:20;15.00;;;5.93;;
55931;SDS011;41837;55.700;37.984;2022-12-08T03:58:50;13.75;;;5.10;;
55931;SDS011;41837;55.700;37.984;2022-12-08T04:01:16;14.27;;;5.28;;
55931;SDS011;41837;55.700;37.984;2022-12-08T04:03:43;11.60;;;4.88;;
55931;SDS011;41837;55.700;37.984;2022-12-08T04:06:10;10.55;;;4.28;;
55931;SDS011;41837;55.700;37.984;2022-12-08T04:08:36;9.68;;;4.07;;
55931;SDS011;41837;55.700;37.984;2022-12-08T04:11:02;16.17;;;5.88;;
55931;SDS011;41837;55.700;37.984;2022-12-08T04:13:31;14.73;;;6.22;;
55931;SDS011;41837;55.700;37.984;2022-12-08T04:16:00;13.80;;;5.55;;
55931;SDS011;41837;55.700;37.984;2022-12-08T04:18:26;14.00;;;5.50;;
55931;SDS011;41837;55.700;37.984;2022-12-08T04:20:53;15.65;;;6.20;;
55931;SDS011;41837;55.700;37.984;2022-12-08T04:23:19;12.20;;;5.78;;
55931;SDS011;41837;55.700;37.984;2022-12-08T04:25:45;18.08;;;7.10;;
55931;SDS011;41837;55.700;37.984;2022-12-08T04:28:12;22.20;;;7.45;;
55931;SDS011;41837;55.700;37.984;2022-12-08T04:30:38;14.07;;;5.40;;
55931;SDS011;41837;55.700;37.984;2022-12-08T04:33:05;20.35;;;8.32;;
55931;SDS011;41837;55.700;37.984;2022-12-08T04:35:31;18.70;;;7.82;;
55931;SDS011;41837;55.700;37.984;2022-12-08T04:37:57;15.63;;;5.88;;
55931;SDS011;41837;55.700;37.984;2022-12-08T04:40:24;11.27;;;5.05;;
55931;SDS011;41837;55.700;37.984;2022-12-08T04:42:51;17.65;;;5.45;;
55931;SDS011;41837;55.700;37.984;2022-12-08T04:45:17;17.40;;;5.45;;
55931;SDS011;41837;55.700;37.984;2022-12-08T04:47:44;10.80;;;5.05;;
55931;SDS011;41837;55.700;37.984;2022-12-08T04:50:11;11.45;;;4.22;;
55931;SDS011;41837;55.700;37.984;2022-12-08T04:52:38;20.13;;;7.18;;
55931;SDS011;41837;55.700;37.984;2022-12-08T04:55:05;12.73;;;4.32;;
55931;SDS011;41837;55.700;37.984;2022-12-08T04:57:31;12.48;;;5.75;;
55931;SDS011;41837;55.700;37.984;2022-12-08T04:59:58;12.63;;;4.72;;
55931;SDS011;41837;55.700;37.984;2022-12-08T05:02:24;12.98;;;4.50;;
55931;SDS011;41837;55.700;37.984;2022-12-08T05:04:50;14.20;;;5.32;;
55931;SDS011;41837;55.700;37.984;2022-12-08T05:07:16;16.95;;;5.68;;
55931;SDS011;41837;55.700;37.984;2022-12-08T05:09:42;10.63;;;5.00;;
55931;SDS011;41837;55.700;37.984;2022-12-08T05:12:09;10.05;;;4.65;;
55931;SDS011;41837;55.700;37.984;2022-12-08T05:14:36;11.65;;;4.88;;
55931;SDS011;41837;55.700;37.984;2022-12-08T05:17:02;12.82;;;5.97;;
55931;SDS011;41837;55.700;37.984;2022-12-08T05:19:28;11.07;;;5.35;;
55931;SDS011;41837;55.700;37.984;2022-12-08T05:21:55;9.77;;;4.55;;
55931;SDS011;41837;55.700;37.984;2022-12-08T05:24:21;12.88;;;5.80;;
55931;SDS011;41837;55.700;37.984;2022-12-08T05:26:48;13.52;;;5.47;;
55931;SDS011;41837;55.700;37.984;2022-12-08T05:29:15;10.63;;;5.00;;
55931;SDS011;41837;55.700;37.984;2022-12-08T05:31:41;12.85;;;5.03;;
55931;SDS011;41837;55.700;37.984;2022-12-08T05:34:08;9.77;;;4.78;;
55931;SDS011;41837;55.700;37.984;2022-12-08T05:36:34;13.25;;;4.88;;
55931;SDS011;41837;55.700;37.984;2022-12-08T05:39:00;12.13;;;5.38;;
55931;SDS011;41837;55.700;37.984;2022-12-08T05:41:27;12.48;;;5.38;;
55931;SDS011;41837;55.700;37.984;2022-12-08T05:43:54;9.73;;;4.03;;
55931;SDS011;41837;55.700;37.984;2022-12-08T05:46:21;11.77;;;4.82;;
55931;SDS011;41837;55.700;37.984;2022-12-08T05:48:47;11.63;;;5.60;;
55931;SDS011;41837;55.700;37.984;2022-12-08T05:51:15;12.02;;;4.80;;
55931;SDS011;41837;55.700;37.984;2022-12-08T05:53:44;10.07;;;4.65;;
55931;SDS011;41837;55.700;37.984;2022-12-08T05:56:11;13.25;;;5.53;;
55931;SDS011;41837;55.700;37.984;2022-12-08T05:58:38;15.05;;;4.97;;
55931;SDS011;41837;55.700;37.984;2022-12-08T06:01:04;9.25;;;3.80;;
55931;SDS011;41837;55.700;37.984;2022-12-08T06:03:31;9.80;;;4.47;;
55931;SDS011;41837;55.700;37.984;2022-12-08T06:05:57;15.13;;;5.93;;
55931;SDS011;41837;55.700;37.984;2022-12-08T06:08:23;14.98;;;5.22;;
55931;SDS011;41837;55.700;37.984;2022-12-08T06:10:50;14.60;;;5.80;;
55931;SDS011;41837;55.700;37.984;2022-12-08T06:13:16;12.93;;;5.43;;
55931;SDS011;41837;55.700;37.984;2022-12-08T06:15:42;10.82;;;4.43;;
55931;SDS011;41837;55.700;37.984;2022-12-08T06:18:08;11.15;;;4.57;;
55931;SDS011;41837;55.700;37.984;2022-12-08T06:20:36;10.30;;;4.45;;
55931;SDS011;41837;55.700;37.984;2022-12-08T06:23:03;9.60;;;4.68;;
55931;SDS011;41837;55.700;37.984;2022-12-08T06:25:29;12.50;;;5.07;;
55931;SDS011;41837;55.700;37.984;2022-12-08T06:27:55;15.48;;;6.03;;
55931;SDS011;41837;55.700;37.984;2022-12-08T06:30:21;12.27;;;5.32;;
55931;SDS011;41837;55.700;37.984;2022-12-08T06:32:47;15.73;;;5.47;;
55931;SDS011;41837;55.700;37.984;2022-12-08T06:35:14;16.67;;;5.82;;
55931;SDS011;41837;55.700;37.984;2022-12-08T06:37:40;14.00;;;5.82;;
55931;SDS011;41837;55.700;37.984;2022-12-08T06:40:06;13.30;;;5.47;;
55931;SDS011;41837;55.700;37.984;2022-12-08T06:42:33;16.48;;;4.70;;
55931;SDS011;41837;55.700;37.984;2022-12-08T06:45:12;14.75;;;5.40;;
55931;SDS011;41837;55.700;37.984;2022-12-08T06:47:40;16.08;;;5.95;;
55931;SDS011;41837;55.700;37.984;2022-12-08T06:50:07;12.85;;;5.75;;
55931;SDS011;41837;55.700;37.984;2022-12-08T06:52:34;12.27;;;4.38;;
55931;SDS011;41837;55.700;37.984;2022-12-08T06:55:01;11.23;;;4.70;;
55931;SDS011;41837;55.700;37.984;2022-12-08T06:57:29;12.70;;;5.43;;
55931;SDS011;41837;55.700;37.984;2022-12-08T06:59:56;14.18;;;5.50;;
55931;SDS011;41837;55.700;37.984;2022-12-08T07:02:22;10.25;;;3.97;;
55931;SDS011;41837;55.700;37.984;2022-12-08T07:04:48;10.77;;;5.03;;
55931;SDS011;41837;55.700;37.984;2022-12-08T07:07:15;16.65;;;4.90;;
55931;SDS011;41837;55.700;37.984;2022-12-08T07:09:41;10.80;;;4.60;;
55931;SDS011;41837;55.700;37.984;2022-12-08T07:12:07;12.63;;;4.53;;
55931;SDS011;41837;55.700;37.984;2022-12-08T07:14:34;10.57;;;4.68;;
55931;SDS011;41837;55.700;37.984;2022-12-08T07:17:01;14.98;;;5.45;;
55931;SDS011;41837;55.700;37.984;2022-12-08T07:19:28;14.05;;;5.68;;
55931;SDS011;41837;55.700;37.984;2022-12-08T07:21:54;11.32;;;5.22;;
55931;SDS011;41837;55.700;37.984;2022-12-08T07:24:20;13.75;;;6.05;;
55931;SDS011;41837;55.700;37.984;2022-12-08T07:26:46;12.50;;;4.88;;
55931;SDS011;41837;55.700;37.984;2022-12-08T07:29:13;17.85;;;5.50;;
55931;SDS011;41837;55.700;37.984;2022-12-08T07:31:39;16.45;;;5.55;;
55931;SDS011;41837;55.700;37.984;2022-12-08T07:34:05;13.98;;;6.13;;
55931;SDS011;41837;55.700;37.984;2022-12-08T07:36:32;15.93;;;6.03;;
55931;SDS011;41837;55.700;37.984;2022-12-08T07:38:58;15.60;;;7.45;;
55931;SDS011;41837;55.700;37.984;2022-12-08T07:41:24;10.95;;;5.18;;
55931;SDS011;41837;55.700;37.984;2022-12-08T07:43:52;14.63;;;5.18;;
55931;SDS011;41837;55.700;37.984;2022-12-08T07:46:20;12.07;;;5.25;;
55931;SDS011;41837;55.700;37.984;2022-12-08T07:48:48;12.98;;;5.30;;
55931;SDS011;41837;55.700;37.984;2022-12-08T07:51:15;11.75;;;5.10;;
55931;SDS011;41837;55.700;37.984;2022-12-08T07:53:42;11.45;;;5.35;;
55931;SDS011;41837;55.700;37.984;2022-12-08T07:56:11;8.82;;;4.65;;
55931;SDS011;41837;55.700;37.984;2022-12-08T07:58:38;13.82;;;5.22;;
55931;SDS011;41837;55.700;37.984;2022-12-08T08:01:06;14.55;;;4.50;;
55931;SDS011;41837;55.700;37.984;2022-12-08T08:03:43;17.95;;;6.18;;
55931;SDS011;41837;55.700;37.984;2022-12-08T08:06:10;16.05;;;5.75;;
55931;SDS011;41837;55.700;37.984;2022-12-08T08:08:36;12.85;;;5.00;;
55931;SDS011;41837;55.700;37.984;2022-12-08T08:11:05;15.65;;;5.63;;
55931;SDS011;41837;55.700;37.984;2022-12-08T08:13:31;10.88;;;4.68;;
55931;SDS011;41837;55.700;37.984;2022-12-08T08:16:04;10.68;;;4.72;;
55931;SDS011;41837;55.700;37.984;2022-12-08T08:18:34;14.27;;;5.93;;
55931;SDS011;41837;55.700;37.984;2022-12-08T08:21:04;19.20;;;7.00;;
55931;SDS011;41837;55.700;37.984;2022-12-08T08:23:31;11.32;;;5.30;;
55931;SDS011;41837;55.700;37.984;2022-12-08T08:25:59;10.52;;;4.68;;
55931;SDS011;41837;55.700;37.984;2022-12-08T08:28:27;8.93;;;3.95;;
55931;SDS011;41837;55.700;37.984;2022-12-08T08:30:54;13.13;;;5.60;;
55931;SDS011;41837;55.700;37.984;2022-12-08T08:33:21;12.73;;;4.90;;
55931;SDS011;41837;55.700;37.984;2022-12-08T08:35:47;10.35;;;4.53;;
55931;SDS011;41837;55.700;37.984;2022-12-08T08:38:14;10.23;;;4.63;;
55931;SDS011;41837;55.700;37.984;2022-12-08T08:40:39;11.52;;;5.32;;
55931;SDS011;41837;55.700;37.984;2022-12-08T08:43:05;12.10;;;4.82;;
55931;SDS011;41837;55.700;37.984;2022-12-08T08:45:32;10.65;;;4.57;;
55931;SDS011;41837;55.700;37.984;2022-12-08T08:47:59;16.33;;;5.65;;
55931;SDS011;41837;55.700;37.984;2022-12-08T08:50:26;14.68;;;5.78;;
55931;SDS011;41837;55.700;37.984;2022-12-08T08:52:52;13.52;;;5.93;;
55931;SDS011;41837;55.700;37.984;2022-12-08T08:55:18;13.00;;;6.22;;
55931;SDS011;41837;55.700;37.984;2022-12-08T08:57:44;14.27;;;6.22;;
55931;SDS011;41837;55.700;37.984;2022-12-08T09:00:11;10.35;;;4.60;;
55931;SDS011;41837;55.700;37.984;2022-12-08T09:02:38;17.40;;;5.45;;
55931;SDS011;41837;55.700;37.984;2022-12-08T09:05:04;9.98;;;4.57;;
55931;SDS011;41837;55.700;37.984;2022-12-08T09:07:33;14.25;;;5.15;;
55931;SDS011;41837;55.700;37.984;2022-12-08T09:09:59;14.77;;;6.13;;
55931;SDS011;41837;55.700;37.984;2022-12-08T09:12:26;14.18;;;5.82;;
55931;SDS011;41837;55.700;37.984;2022-12-08T09:14:52;14.93;;;6.30;;
55931;SDS011;41837;55.700;37.984;2022-12-08T09:17:18;12.02;;;6.20;;
55931;SDS011;41837;55.700;37.984;2022-12-08T09:19:44;15.48;;;7.38;;
55931;SDS011;41837;55.700;37.984;2022-12-08T09:22:09;12.77;;;5.60;;
55931;SDS011;41837;55.700;37.984;2022-12-08T09:24:35;16.02;;;6.53;;
55931;SDS011;41837;55.700;37.984;2022-12-08T09:27:02;15.30;;;6.82;;
55931;SDS011;41837;55.700;37.984;2022-12-08T09:29:28;16.85;;;8.20;;
55931;SDS011;41837;55.700;37.984;2022-12-08T09:31:54;24.00;;;9.95;;
55931;SDS011;41837;55.700;37.984;2022-12-08T09:34:20;16.27;;;6.18;;
55931;SDS011;41837;55.700;37.984;2022-12-08T09:36:46;15.98;;;6.15;;
55931;SDS011;41837;55.700;37.984;2022-12-08T09:39:13;11.52;;;5.22;;
55931;SDS011;41837;55.700;37.984;2022-12-08T09:41:59;17.48;;;7.50;;
55931;SDS011;41837;55.700;37.984;2022-12-08T09:47:20;13.43;;;5.53;;
55931;SDS011;41837;55.700;37.984;2022-12-08T09:50:42;12.52;;;5.38;;
55931;SDS011;41837;55.700;37.984;2022-12-08T09:55:43;13.43;;;5.88;;
55931;SDS011;41837;55.700;37.984;2022-12-08T09:58:19;12.52;;;6.47;;
55931;SDS011;41837;55.700;37.984;2022-12-08T10:00:52;11.85;;;5.80;;
55931;SDS011;41837;55.700;37.984;2022-12-08T10:03:19;12.40;;;5.93;;
55931;SDS011;41837;55.700;37.984;2022-12-08T10:05:53;19.65;;;7.00;;
55931;SDS011;41837;55.700;37.984;2022-12-08T10:11:35;19.95;;;6.80;;
55931;SDS011;41837;55.700;37.984;2022-12-08T10:16:47;13.75;;;6.18;;
55931;SDS011;41837;55.700;37.984;2022-12-08T10:19:22;14.93;;;6.55;;
55931;SDS011;41837;55.700;37.984;2022-12-08T10:21:50;16.20;;;5.25;;
55931;SDS011;41837;55.700;37.984;2022-12-08T10:24:24;16.75;;;7.15;;
55931;SDS011;41837;55.700;37.984;2022-12-08T10:26:50;15.23;;;6.82;;
55931;SDS011;41837;55.700;37.984;2022-12-08T10:29:19;13.73;;;5.53;;
55931;SDS011;41837;55.700;37.984;2022-12-08T10:31:45;15.02;;;6.22;;
55931;SDS011;41837;55.700;37.984;2022-12-08T10:34:13;13.35;;;5.57;;
55931;SDS011;41837;55.700;37.984;2022-12-08T10:36:48;18.25;;;6.95;;
55931;SDS011;41837;55.700;37.984;2022-12-08T10:39:29;14.90;;;6.88;;
55931;SDS011;41837;55.700;37.984;2022-12-08T10:44:27;14.30;;;6.65;;
55931;SDS011;41837;55.700;37.984;2022-12-08T10:46:54;13.25;;;5.40;;
55931;SDS011;41837;55.700;37.984;2022-12-08T10:49:28;15.75;;;7.32;;
55931;SDS011;41837;55.700;37.984;2022-12-08T10:51:57;18.45;;;7.60;;
55931;SDS011;41837;55.700;37.984;2022-12-08T10:54:28;15.55;;;6.28;;
55931;SDS011;41837;55.700;37.984;2022-12-08T10:56:58;15.45;;;7.82;;
55931;SDS011;41837;55.700;37.984;2022-12-08T10:59:24;14.80;;;5.72;;
55931;SDS011;41837;55.700;37.984;2022-12-08T11:01:52;15.80;;;6.43;;
55931;SDS011;41837;55.700;37.984;2022-12-08T11:04:21;15.18;;;6.82;;
55931;SDS011;41837;55.700;37.984;2022-12-08T11:06:58;15.52;;;6.60;;
55931;SDS011;41837;55.700;37.984;2022-12-08T11:09:30;16.50;;;7.80;;
55931;SDS011;41837;55.700;37.984;2022-12-08T11:12:06;17.50;;;8.13;;
55931;SDS011;41837;55.700;37.984;2022-12-08T11:17:11;17.35;;;7.40;;
55931;SDS011;41837;55.700;37.984;2022-12-08T11:19:43;21.70;;;7.22;;
55931;SDS011;41837;55.700;37.984;2022-12-08T11:27:37;14.93;;;6.63;;
55931;SDS011;41837;55.700;37.984;2022-12-08T11:30:13;16.35;;;6.57;;
55931;SDS011;41837;55.700;37.984;2022-12-08T11:33:02;20.02;;;7.85;;
55931;SDS011;41837;55.700;37.984;2022-12-08T11:35:40;16.67;;;7.78;;
55931;SDS011;41837;55.700;37.984;2022-12-08T11:38:13;17.20;;;7.30;;
55931;SDS011;41837;55.700;37.984;2022-12-08T11:40:42;14.90;;;6.97;;
55931;SDS011;41837;55.700;37.984;2022-12-08T11:46:24;17.15;;;7.60;;
55931;SDS011;41837;55.700;37.984;2022-12-08T11:49:09;15.10;;;7.47;;
55931;SDS011;41837;55.700;37.984;2022-12-08T11:54:35;13.52;;;7.15;;
55931;SDS011;41837;55.700;37.984;2022-12-08T11:57:11;16.70;;;6.80;;
55931;SDS011;41837;55.700;37.984;2022-12-08T11:59:42;15.95;;;7.25;;
55931;SDS011;41837;55.700;37.984;2022-12-08T12:02:11;15.45;;;7.53;;
55931;SDS011;41837;55.700;37.984;2022-12-08T12:07:47;16.02;;;7.53;;
55931;SDS011;41837;55.700;37.984;2022-12-08T12:10:24;16.88;;;7.95;;
55931;SDS011;41837;55.700;37.984;2022-12-08T12:16:02;17.30;;;8.38;;
55931;SDS011;41837;55.700;37.984;2022-12-08T12:18:46;18.80;;;9.23;;
55931;SDS011;41837;55.700;37.984;2022-12-08T12:21:24;15.82;;;7.20;;
55931;SDS011;41837;55.700;37.984;2022-12-08T12:23:57;20.75;;;8.98;;
55931;SDS011;41837;55.700;37.984;2022-12-08T12:26:29;21.00;;;8.95;;
55931;SDS011;41837;55.700;37.984;2022-12-08T12:29:06;23.92;;;11.10;;
55931;SDS011;41837;55.700;37.984;2022-12-08T12:31:40;19.05;;;8.35;;
55931;SDS011;41837;55.700;37.984;2022-12-08T12:37:14;19.88;;;8.75;;
55931;SDS011;41837;55.700;37.984;2022-12-08T12:53:00;22.00;;;9.73;;
55931;SDS011;41837;55.700;37.984;2022-12-08T13:03:38;14.25;;;7.03;;
55931;SDS011;41837;55.700;37.984;2022-12-08T13:06:07;20.25;;;8.02;;
55931;SDS011;41837;55.700;37.984;2022-12-08T13:08:37;15.07;;;6.78;;
55931;SDS011;41837;55.700;37.984;2022-12-08T13:11:08;17.73;;;8.68;;
55931;SDS011;41837;55.700;37.984;2022-12-08T13:13:35;19.42;;;8.43;;
55931;SDS011;41837;55.700;37.984;2022-12-08T13:26:14;18.35;;;8.60;;
55931;SDS011;41837;55.700;37.984;2022-12-08T13:29:04;16.48;;;7.55;;
55931;SDS011;41837;55.700;37.984;2022-12-08T13:31:48;20.50;;;9.13;;
55931;SDS011;41837;55.700;37.984;2022-12-08T13:34:36;21.77;;;9.75;;
55931;SDS011;41837;55.700;37.984;2022-12-08T13:42:06;19.73;;;10.45;;
55931;SDS011;41837;55.700;37.984;2022-12-08T13:47:46;22.15;;;10.57;;
55931;SDS011;41837;55.700;37.984;2022-12-08T13:53:20;20.48;;;9.90;;
55931;SDS011;41837;55.700;37.984;2022-12-08T13:55:48;20.88;;;10.57;;
55931;SDS011;41837;55.700;37.984;2022-12-08T13:58:30;20.75;;;11.18;;
55931;SDS011;41837;55.700;37.984;2022-12-08T14:03:27;28.45;;;11.82;;
55931;SDS011;41837;55.700;37.984;2022-12-08T14:05:55;20.75;;;8.85;;
55931;SDS011;41837;55.700;37.984;2022-12-08T14:08:29;21.55;;;10.43;;
55931;SDS011;41837;55.700;37.984;2022-12-08T14:11:01;20.45;;;9.60;;
55931;SDS011;41837;55.700;37.984;2022-12-08T14:13:30;21.25;;;10.13;;
55931;SDS011;41837;55.700;37.984;2022-12-08T14:15:57;21.70;;;10.35;;
55931;SDS011;41837;55.700;37.984;2022-12-08T14:18:25;21.13;;;10.65;;
55931;SDS011;41837;55.700;37.984;2022-12-08T14:21:04;21.20;;;10.13;;
55931;SDS011;41837;55.700;37.984;2022-12-08T14:23:36;22.83;;;10.68;;
55931;SDS011;41837;55.700;37.984;2022-12-08T14:26:03;25.52;;;12.38;;
55931;SDS011;41837;55.700;37.984;2022-12-08T14:28:31;20.27;;;10.45;;
55931;SDS011;41837;55.700;37.984;2022-12-08T14:30:58;22.77;;;10.05;;
55931;SDS011;41837;55.700;37.984;2022-12-08T14:33:24;22.30;;;10.32;;
55931;SDS011;41837;55.700;37.984;2022-12-08T14:35:55;21.20;;;9.65;;
55931;SDS011;41837;55.700;37.984;2022-12-08T14:38:23;25.17;;;10.55;;
55931;SDS011;41837;55.700;37.984;2022-12-08T14:41:04;24.50;;;9.88;;
55931;SDS011;41837;55.700;37.984;2022-12-08T14:43:32;25.13;;;9.27;;
55931;SDS011;41837;55.700;37.984;2022-12-08T14:45:59;24.38;;;9.80;;
55931;SDS011;41837;55.700;37.984;2022-12-08T14:53:56;21.35;;;9.88;;
55931;SDS011;41837;55.700;37.984;2022-12-08T14:56:28;22.27;;;9.73;;
55931;SDS011;41837;55.700;37.984;2022-12-08T14:59:19;21.67;;;10.10;;
55931;SDS011;41837;55.700;37.984;2022-12-08T15:04:56;24.80;;;10.48;;
55931;SDS011;41837;55.700;37.984;2022-12-08T15:07:27;23.08;;;10.43;;
55931;SDS011;41837;55.700;37.984;2022-12-08T15:15:24;22.23;;;9.73;;
55931;SDS011;41837;55.700;37.984;2022-12-08T15:17:56;18.92;;;9.85;;
55931;SDS011;41837;55.700;37.984;2022-12-08T15:23:03;23.63;;;10.20;;
55931;SDS011;41837;55.700;37.984;2022-12-08T15:25:30;23.73;;;10.70;;
55931;SDS011;41837;55.700;37.984;2022-12-08T15:27:57;24.90;;;10.13;;
55931;SDS011;41837;55.700;37.984;2022-12-08T15:30:24;20.63;;;9.13;;
55931;SDS011;41837;55.700;37.984;2022-12-08T15:32:54;21.20;;;9.88;;
55931;SDS011;41837;55.700;37.984;2022-12-08T15:35:20;26.33;;;11.00;;
55931;SDS011;41837;55.700;37.984;2022-12-08T15:37:47;28.77;;;11.25;;
55931;SDS011;41837;55.700;37.984;2022-12-08T15:40:18;21.35;;;9.05;;
55931;SDS011;41837;55.700;37.984;2022-12-08T15:42:45;22.42;;;9.65;;
55931;SDS011;41837;55.700;37.984;2022-12-08T15:45:12;25.90;;;9.45;;
55931;SDS011;41837;55.700;37.984;2022-12-08T15:47:40;25.30;;;11.38;;
55931;SDS011;41837;55.700;37.984;2022-12-08T15:50:18;22.75;;;10.30;;
55931;SDS011;41837;55.700;37.984;2022-12-08T15:52:46;24.10;;;10.40;;
55931;SDS011;41837;55.700;37.984;2022-12-08T15:55:14;26.40;;;10.82;;
55931;SDS011;41837;55.700;37.984;2022-12-08T15:57:43;26.02;;;11.60;;
55931;SDS011;41837;55.700;37.984;2022-12-08T16:02:47;25.15;;;11.63;;
55931;SDS011;41837;55.700;37.984;2022-12-08T16:05:14;25.08;;;11.27;;
55931;SDS011;41837;55.700;37.984;2022-12-08T16:07:40;28.92;;;11.55;;
55931;SDS011;41837;55.700;37.984;2022-12-08T16:10:07;28.20;;;10.57;;
55931;SDS011;41837;55.700;37.984;2022-12-08T16:12:39;28.73;;;11.02;;
55931;SDS011;41837;55.700;37.984;2022-12-08T16:15:24;29.23;;;12.20;;
55931;SDS011;41837;55.700;37.984;2022-12-08T16:17:50;33.80;;;12.43;;
55931;SDS011;41837;55.700;37.984;2022-12-08T16:20:16;31.67;;;12.57;;
55931;SDS011;41837;55.700;37.984;2022-12-08T16:22:43;25.50;;;10.95;;
55931;SDS011;41837;55.700;37.984;2022-12-08T16:25:10;25.88;;;10.10;;
55931;SDS011;41837;55.700;37.984;2022-12-08T16:27:37;24.05;;;9.52;;
55931;SDS011;41837;55.700;37.984;2022-12-08T16:30:06;22.33;;;11.15;;
55931;SDS011;41837;55.700;37.984;2022-12-08T16:32:36;27.55;;;11.20;;
55931;SDS011;41837;55.700;37.984;2022-12-08T16:35:02;25.73;;;10.93;;
55931;SDS011;41837;55.700;37.984;2022-12-08T16:37:29;23.02;;;10.45;;
55931;SDS011;41837;55.700;37.984;2022-12-08T16:39:56;30.48;;;11.80;;
55931;SDS011;41837;55.700;37.984;2022-12-08T16:42:27;26.63;;;11.68;;
55931;SDS011;41837;55.700;37.984;2022-12-08T16:45:15;24.50;;;11.25;;
55931;SDS011;41837;55.700;37.984;2022-12-08T16:47:43;26.73;;;12.35;;
55931;SDS011;41837;55.700;37.984;2022-12-08T16:50:13;30.42;;;11.98;;
55931;SDS011;41837;55.700;37.984;2022-12-08T16:52:43;28.50;;;11.10;;
55931;SDS011;41837;55.700;37.984;2022-12-08T16:55:13;24.80;;;10.73;;
55931;SDS011;41837;55.700;37.984;2022-12-08T16:57:44;32.05;;;12.10;;